sensor_id;sensor_type;location;lat;lon;timestamp;P1;durP1;ratioP1;P2;durP2;ratioP2
32918;SDS011;19280;42.646;21.150;2023-04-25T00:00:26;1.27;;;0.90;;
32918;SDS011;19280;42.646;21.150;2023-04-25T00:02:52;1.35;;;0.70;;
32918;SDS011;19280;42.646;21.150;2023-04-25T00:05:18;1.10;;;0.90;;
32918;SDS011;19280;42.646;21.150;2023-04-25T00:07:44;1.75;;;1.17;;
32918;SDS011;19280;42.646;21.150;2023-04-25T00:10:11;1.92;;;0.88;;
32918;SDS011;19280;42.646;21.150;2023-04-25T00:12:37;1.70;;;0.80;;
32918;SDS011;19280;42.646;21.150;2023-04-25T00:15:04;3.42;;;0.88;;
32918;SDS011;19280;42.646;21.150;2023-04-25T00:17:30;3.28;;;1.00;;
32918;SDS011;19280;42.646;21.150;2023-04-25T00:19:56;0.80;;;0.60;;
32918;SDS011;19280;42.646;21.150;2023-04-25T00:22:23;1.70;;;0.90;;
32918;SDS011;19280;42.646;21.150;2023-04-25T00:24:49;2.97;;;1.13;;
32918;SDS011;19280;42.646;21.150;2023-04-25T00:27:15;3.20;;;1.45;;
32918;SDS011;19280;42.646;21.150;2023-04-25T00:29:41;3.63;;;1.55;;
32918;SDS011;19280;42.646;21.150;2023-04-25T00:32:07;2.03;;;1.30;;
32918;SDS011;19280;42.646;21.150;2023-04-25T00:34:33;3.13;;;1.10;;
32918;SDS011;19280;42.646;21.150;2023-04-25T00:36:59;2.30;;;1.40;;
32918;SDS011;19280;42.646;21.150;2023-04-25T00:39:27;1.85;;;1.25;;
32918;SDS011;19280;42.646;21.150;2023-04-25T00:41:53;1.77;;;1.10;;
32918;SDS011;19280;42.646;21.150;2023-04-25T00:44:20;3.35;;;1.42;;
32918;SDS011;19280;42.646;21.150;2023-04-25T00:46:49;2.55;;;1.05;;
32918;SDS011;19280;42.646;21.150;2023-04-25T00:49:16;1.33;;;0.90;;
32918;SDS011;19280;42.646;21.150;2023-04-25T00:51:42;1.00;;;0.70;;
32918;SDS011;19280;42.646;21.150;2023-04-25T00:54:12;1.02;;;0.55;;
32918;SDS011;19280;42.646;21.150;2023-04-25T00:56:38;1.58;;;0.82;;
32918;SDS011;19280;42.646;21.150;2023-04-25T00:59:04;1.60;;;1.02;;
32918;SDS011;19280;42.646;21.150;2023-04-25T01:01:31;2.55;;;1.17;;
32918;SDS011;19280;42.646;21.150;2023-04-25T01:03:58;2.53;;;0.77;;
32918;SDS011;19280;42.646;21.150;2023-04-25T01:06:24;1.50;;;0.85;;
32918;SDS011;19280;42.646;21.150;2023-04-25T01:08:50;1.13;;;0.82;;
32918;SDS011;19280;42.646;21.150;2023-04-25T01:11:17;1.13;;;0.85;;
32918;SDS011;19280;42.646;21.150;2023-04-25T01:13:43;0.50;;;0.50;;
32918;SDS011;19280;42.646;21.150;2023-04-25T01:16:09;1.92;;;0.77;;
32918;SDS011;19280;42.646;21.150;2023-04-25T01:18:36;1.05;;;0.75;;
32918;SDS011;19280;42.646;21.150;2023-04-25T01:21:07;4.15;;;0.95;;
32918;SDS011;19280;42.646;21.150;2023-04-25T01:23:34;2.05;;;1.40;;
32918;SDS011;19280;42.646;21.150;2023-04-25T01:26:01;1.88;;;0.88;;
32918;SDS011;19280;42.646;21.150;2023-04-25T01:28:27;2.15;;;1.40;;
32918;SDS011;19280;42.646;21.150;2023-04-25T01:30:54;1.10;;;0.80;;
32918;SDS011;19280;42.646;21.150;2023-04-25T01:33:20;0.73;;;0.70;;
32918;SDS011;19280;42.646;21.150;2023-04-25T01:35:47;1.35;;;1.00;;
32918;SDS011;19280;42.646;21.150;2023-04-25T01:38:13;1.77;;;1.17;;
32918;SDS011;19280;42.646;21.150;2023-04-25T01:40:40;1.40;;;0.80;;
32918;SDS011;19280;42.646;21.150;2023-04-25T01:43:09;1.92;;;0.82;;
32918;SDS011;19280;42.646;21.150;2023-04-25T01:45:37;4.80;;;0.98;;
32918;SDS011;19280;42.646;21.150;2023-04-25T01:48:06;0.82;;;0.50;;
32918;SDS011;19280;42.646;21.150;2023-04-25T01:50:32;0.80;;;0.52;;
32918;SDS011;19280;42.646;21.150;2023-04-25T01:52:58;2.35;;;0.70;;
32918;SDS011;19280;42.646;21.150;2023-04-25T01:55:24;0.55;;;0.40;;
32918;SDS011;19280;42.646;21.150;2023-04-25T01:57:50;0.95;;;0.50;;
32918;SDS011;19280;42.646;21.150;2023-04-25T02:00:16;1.23;;;0.70;;
32918;SDS011;19280;42.646;21.150;2023-04-25T02:02:42;0.98;;;0.63;;
32918;SDS011;19280;42.646;21.150;2023-04-25T02:05:08;1.75;;;0.90;;
32918;SDS011;19280;42.646;21.150;2023-04-25T02:07:34;0.60;;;0.43;;
32918;SDS011;19280;42.646;21.150;2023-04-25T02:10:01;2.58;;;0.80;;
32918;SDS011;19280;42.646;21.150;2023-04-25T02:12:27;0.90;;;0.65;;
32918;SDS011;19280;42.646;21.150;2023-04-25T02:14:53;0.20;;;0.20;;
32918;SDS011;19280;42.646;21.150;2023-04-25T02:17:19;4.85;;;0.60;;
32918;SDS011;19280;42.646;21.150;2023-04-25T02:19:46;0.85;;;0.30;;
32918;SDS011;19280;42.646;21.150;2023-04-25T02:22:13;1.95;;;0.32;;
32918;SDS011;19280;42.646;21.150;2023-04-25T02:24:39;0.55;;;0.30;;
32918;SDS011;19280;42.646;21.150;2023-04-25T02:27:05;4.05;;;0.40;;
32918;SDS011;19280;42.646;21.150;2023-04-25T02:29:31;1.42;;;0.45;;
32918;SDS011;19280;42.646;21.150;2023-04-25T02:31:57;1.05;;;0.50;;
32918;SDS011;19280;42.646;21.150;2023-04-25T02:34:23;1.70;;;0.95;;
32918;SDS011;19280;42.646;21.150;2023-04-25T02:36:49;1.00;;;0.57;;
32918;SDS011;19280;42.646;21.150;2023-04-25T02:39:16;0.75;;;0.40;;
32918;SDS011;19280;42.646;21.150;2023-04-25T02:41:42;1.00;;;0.52;;
32918;SDS011;19280;42.646;21.150;2023-04-25T02:44:08;1.00;;;0.50;;
32918;SDS011;19280;42.646;21.150;2023-04-25T02:46:34;1.20;;;0.60;;
32918;SDS011;19280;42.646;21.150;2023-04-25T02:49:00;0.90;;;0.60;;
32918;SDS011;19280;42.646;21.150;2023-04-25T02:51:26;0.90;;;0.60;;
32918;SDS011;19280;42.646;21.150;2023-04-25T02:53:52;1.52;;;0.70;;
32918;SDS011;19280;42.646;21.150;2023-04-25T02:56:18;5.50;;;1.20;;
32918;SDS011;19280;42.646;21.150;2023-04-25T02:58:45;1.80;;;1.00;;
32918;SDS011;19280;42.646;21.150;2023-04-25T03:01:11;3.00;;;1.10;;
32918;SDS011;19280;42.646;21.150;2023-04-25T03:03:37;2.72;;;1.00;;
32918;SDS011;19280;42.646;21.150;2023-04-25T03:06:03;2.88;;;0.93;;
32918;SDS011;19280;42.646;21.150;2023-04-25T03:08:29;2.50;;;0.90;;
32918;SDS011;19280;42.646;21.150;2023-04-25T03:10:57;0.70;;;0.68;;
32918;SDS011;19280;42.646;21.150;2023-04-25T03:13:24;1.25;;;0.57;;
32918;SDS011;19280;42.646;21.150;2023-04-25T03:15:50;0.80;;;0.70;;
32918;SDS011;19280;42.646;21.150;2023-04-25T03:18:16;0.60;;;0.50;;
32918;SDS011;19280;42.646;21.150;2023-04-25T03:20:42;2.10;;;0.65;;
32918;SDS011;19280;42.646;21.150;2023-04-25T03:23:08;1.30;;;0.47;;
32918;SDS011;19280;42.646;21.150;2023-04-25T03:25:34;0.50;;;0.50;;
32918;SDS011;19280;42.646;21.150;2023-04-25T03:28:00;1.02;;;0.68;;
32918;SDS011;19280;42.646;21.150;2023-04-25T03:30:27;1.20;;;0.80;;
32918;SDS011;19280;42.646;21.150;2023-04-25T03:32:53;1.92;;;0.75;;
32918;SDS011;19280;42.646;21.150;2023-04-25T03:35:19;0.98;;;0.55;;
32918;SDS011;19280;42.646;21.150;2023-04-25T03:37:45;1.40;;;0.75;;
32918;SDS011;19280;42.646;21.150;2023-04-25T03:40:11;2.30;;;0.50;;
32918;SDS011;19280;42.646;21.150;2023-04-25T03:42:37;0.77;;;0.57;;
32918;SDS011;19280;42.646;21.150;2023-04-25T03:45:03;0.60;;;0.57;;
32918;SDS011;19280;42.646;21.150;2023-04-25T03:47:29;4.03;;;0.80;;
32918;SDS011;19280;42.646;21.150;2023-04-25T03:49:55;4.13;;;0.90;;
32918;SDS011;19280;42.646;21.150;2023-04-25T03:52:21;1.35;;;0.57;;
32918;SDS011;19280;42.646;21.150;2023-04-25T03:54:47;2.13;;;0.60;;
32918;SDS011;19280;42.646;21.150;2023-04-25T03:57:14;0.85;;;0.68;;
32918;SDS011;19280;42.646;21.150;2023-04-25T03:59:40;1.75;;;0.80;;
32918;SDS011;19280;42.646;21.150;2023-04-25T04:02:06;1.83;;;0.90;;
32918;SDS011;19280;42.646;21.150;2023-04-25T04:04:32;0.40;;;0.40;;
32918;SDS011;19280;42.646;21.150;2023-04-25T04:06:58;2.05;;;0.85;;
32918;SDS011;19280;42.646;21.150;2023-04-25T04:09:24;0.60;;;0.60;;
32918;SDS011;19280;42.646;21.150;2023-04-25T04:11:51;1.25;;;0.70;;
32918;SDS011;19280;42.646;21.150;2023-04-25T04:14:17;0.90;;;0.65;;
32918;SDS011;19280;42.646;21.150;2023-04-25T04:16:43;2.45;;;0.88;;
32918;SDS011;19280;42.646;21.150;2023-04-25T04:19:09;4.70;;;1.02;;
32918;SDS011;19280;42.646;21.150;2023-04-25T04:21:35;1.40;;;0.93;;
32918;SDS011;19280;42.646;21.150;2023-04-25T04:24:02;1.63;;;0.73;;
32918;SDS011;19280;42.646;21.150;2023-04-25T04:26:28;3.78;;;0.93;;
32918;SDS011;19280;42.646;21.150;2023-04-25T04:28:54;6.60;;;1.02;;
32918;SDS011;19280;42.646;21.150;2023-04-25T04:31:20;1.48;;;0.82;;
32918;SDS011;19280;42.646;21.150;2023-04-25T04:33:47;1.77;;;0.75;;
32918;SDS011;19280;42.646;21.150;2023-04-25T04:36:13;4.82;;;0.80;;
32918;SDS011;19280;42.646;21.150;2023-04-25T04:38:40;3.05;;;1.10;;
32918;SDS011;19280;42.646;21.150;2023-04-25T04:41:07;2.70;;;1.02;;
32918;SDS011;19280;42.646;21.150;2023-04-25T04:43:33;6.13;;;1.10;;
32918;SDS011;19280;42.646;21.150;2023-04-25T04:46:02;3.00;;;1.02;;
32918;SDS011;19280;42.646;21.150;2023-04-25T04:48:31;3.03;;;1.17;;
32918;SDS011;19280;42.646;21.150;2023-04-25T04:51:00;5.00;;;0.93;;
32918;SDS011;19280;42.646;21.150;2023-04-25T04:53:26;4.32;;;1.05;;
32918;SDS011;19280;42.646;21.150;2023-04-25T04:55:53;1.88;;;0.85;;
32918;SDS011;19280;42.646;21.150;2023-04-25T04:58:19;4.55;;;0.90;;
32918;SDS011;19280;42.646;21.150;2023-04-25T05:00:45;2.63;;;0.75;;
32918;SDS011;19280;42.646;21.150;2023-04-25T05:03:11;5.22;;;0.80;;
32918;SDS011;19280;42.646;21.150;2023-04-25T05:05:38;3.70;;;0.80;;
32918;SDS011;19280;42.646;21.150;2023-04-25T05:08:05;2.80;;;0.70;;
32918;SDS011;19280;42.646;21.150;2023-04-25T05:10:31;1.65;;;0.70;;
32918;SDS011;19280;42.646;21.150;2023-04-25T05:12:57;4.78;;;1.02;;
32918;SDS011;19280;42.646;21.150;2023-04-25T05:15:23;4.75;;;1.60;;
32918;SDS011;19280;42.646;21.150;2023-04-25T05:17:49;3.47;;;1.10;;
32918;SDS011;19280;42.646;21.150;2023-04-25T05:20:15;2.33;;;0.68;;
32918;SDS011;19280;42.646;21.150;2023-04-25T05:22:43;1.30;;;0.50;;
32918;SDS011;19280;42.646;21.150;2023-04-25T05:25:10;4.57;;;1.08;;
32918;SDS011;19280;42.646;21.150;2023-04-25T05:27:36;4.63;;;0.93;;
32918;SDS011;19280;42.646;21.150;2023-04-25T05:30:02;3.00;;;0.77;;
32918;SDS011;19280;42.646;21.150;2023-04-25T05:32:29;4.97;;;0.85;;
32918;SDS011;19280;42.646;21.150;2023-04-25T05:34:55;3.83;;;0.80;;
32918;SDS011;19280;42.646;21.150;2023-04-25T05:37:21;4.35;;;0.80;;
32918;SDS011;19280;42.646;21.150;2023-04-25T05:39:47;5.30;;;0.90;;
32918;SDS011;19280;42.646;21.150;2023-04-25T05:42:13;3.58;;;1.35;;
32918;SDS011;19280;42.646;21.150;2023-04-25T05:44:40;3.78;;;1.20;;
32918;SDS011;19280;42.646;21.150;2023-04-25T05:47:06;3.88;;;1.48;;
32918;SDS011;19280;42.646;21.150;2023-04-25T05:49:32;3.28;;;1.08;;
32918;SDS011;19280;42.646;21.150;2023-04-25T05:51:58;2.22;;;1.13;;
32918;SDS011;19280;42.646;21.150;2023-04-25T05:54:24;3.40;;;1.55;;
32918;SDS011;19280;42.646;21.150;2023-04-25T05:56:50;9.18;;;1.00;;
32918;SDS011;19280;42.646;21.150;2023-04-25T05:59:16;3.42;;;0.82;;
32918;SDS011;19280;42.646;21.150;2023-04-25T06:01:42;2.92;;;1.00;;
32918;SDS011;19280;42.646;21.150;2023-04-25T06:04:08;27.60;;;2.22;;
32918;SDS011;19280;42.646;21.150;2023-04-25T06:06:34;3.95;;;1.33;;
32918;SDS011;19280;42.646;21.150;2023-04-25T06:09:00;1.48;;;0.70;;
32918;SDS011;19280;42.646;21.150;2023-04-25T06:11:26;7.80;;;1.15;;
32918;SDS011;19280;42.646;21.150;2023-04-25T06:13:52;6.10;;;0.70;;
32918;SDS011;19280;42.646;21.150;2023-04-25T06:16:19;4.60;;;0.80;;
32918;SDS011;19280;42.646;21.150;2023-04-25T06:18:45;6.03;;;0.90;;
32918;SDS011;19280;42.646;21.150;2023-04-25T06:21:11;2.03;;;0.63;;
32918;SDS011;19280;42.646;21.150;2023-04-25T06:23:37;3.10;;;1.08;;
32918;SDS011;19280;42.646;21.150;2023-04-25T06:26:03;4.75;;;0.80;;
32918;SDS011;19280;42.646;21.150;2023-04-25T06:28:29;5.80;;;0.93;;
32918;SDS011;19280;42.646;21.150;2023-04-25T06:30:55;2.95;;;0.93;;
32918;SDS011;19280;42.646;21.150;2023-04-25T06:33:21;5.30;;;0.98;;
32918;SDS011;19280;42.646;21.150;2023-04-25T06:35:49;4.03;;;0.90;;
32918;SDS011;19280;42.646;21.150;2023-04-25T06:38:15;2.88;;;0.90;;
32918;SDS011;19280;42.646;21.150;2023-04-25T06:40:41;6.80;;;1.10;;
32918;SDS011;19280;42.646;21.150;2023-04-25T06:43:07;6.50;;;0.90;;
32918;SDS011;19280;42.646;21.150;2023-04-25T06:45:33;3.55;;;1.02;;
32918;SDS011;19280;42.646;21.150;2023-04-25T06:47:59;17.80;;;2.00;;
32918;SDS011;19280;42.646;21.150;2023-04-25T06:50:25;4.25;;;1.30;;
32918;SDS011;19280;42.646;21.150;2023-04-25T06:52:51;5.38;;;1.50;;
32918;SDS011;19280;42.646;21.150;2023-04-25T06:55:17;8.05;;;1.70;;
32918;SDS011;19280;42.646;21.150;2023-04-25T06:57:44;5.47;;;1.80;;
32918;SDS011;19280;42.646;21.150;2023-04-25T07:00:10;9.45;;;1.80;;
32918;SDS011;19280;42.646;21.150;2023-04-25T07:02:36;11.35;;;2.20;;
32918;SDS011;19280;42.646;21.150;2023-04-25T07:05:02;5.53;;;1.45;;
32918;SDS011;19280;42.646;21.150;2023-04-25T07:07:29;5.50;;;1.67;;
32918;SDS011;19280;42.646;21.150;2023-04-25T07:09:56;5.38;;;1.80;;
32918;SDS011;19280;42.646;21.150;2023-04-25T07:12:22;10.05;;;1.88;;
32918;SDS011;19280;42.646;21.150;2023-04-25T07:14:48;4.70;;;1.30;;
32918;SDS011;19280;42.646;21.150;2023-04-25T07:17:14;11.35;;;2.00;;
32918;SDS011;19280;42.646;21.150;2023-04-25T07:19:40;7.68;;;2.10;;
32918;SDS011;19280;42.646;21.150;2023-04-25T07:22:07;9.02;;;2.08;;
32918;SDS011;19280;42.646;21.150;2023-04-25T07:24:33;11.23;;;2.00;;
32918;SDS011;19280;42.646;21.150;2023-04-25T07:26:59;5.57;;;1.70;;
32918;SDS011;19280;42.646;21.150;2023-04-25T07:29:26;6.88;;;1.48;;
32918;SDS011;19280;42.646;21.150;2023-04-25T07:31:52;7.80;;;1.95;;
32918;SDS011;19280;42.646;21.150;2023-04-25T07:34:18;5.43;;;2.10;;
32918;SDS011;19280;42.646;21.150;2023-04-25T07:36:44;7.97;;;2.40;;
32918;SDS011;19280;42.646;21.150;2023-04-25T07:39:10;8.02;;;1.58;;
32918;SDS011;19280;42.646;21.150;2023-04-25T07:41:36;3.17;;;1.55;;
32918;SDS011;19280;42.646;21.150;2023-04-25T07:44:03;7.75;;;2.03;;
32918;SDS011;19280;42.646;21.150;2023-04-25T07:46:29;4.07;;;1.60;;
32918;SDS011;19280;42.646;21.150;2023-04-25T07:48:55;5.50;;;1.80;;
32918;SDS011;19280;42.646;21.150;2023-04-25T07:51:21;105.35;;;54.42;;
32918;SDS011;19280;42.646;21.150;2023-04-25T07:53:47;137.82;;;65.68;;
32918;SDS011;19280;42.646;21.150;2023-04-25T07:56:13;101.57;;;50.38;;
32918;SDS011;19280;42.646;21.150;2023-04-25T07:58:39;28.13;;;13.50;;
32918;SDS011;19280;42.646;21.150;2023-04-25T08:01:05;35.95;;;17.08;;
32918;SDS011;19280;42.646;21.150;2023-04-25T08:03:31;19.48;;;9.55;;
32918;SDS011;19280;42.646;21.150;2023-04-25T08:05:57;16.05;;;7.18;;
32918;SDS011;19280;42.646;21.150;2023-04-25T08:08:24;50.88;;;25.40;;
32918;SDS011;19280;42.646;21.150;2023-04-25T08:10:50;56.92;;;32.25;;
32918;SDS011;19280;42.646;21.150;2023-04-25T08:13:16;20.80;;;12.02;;
32918;SDS011;19280;42.646;21.150;2023-04-25T08:15:42;43.72;;;22.58;;
32918;SDS011;19280;42.646;21.150;2023-04-25T08:18:09;36.30;;;19.85;;
32918;SDS011;19280;42.646;21.150;2023-04-25T08:20:35;14.43;;;5.65;;
32918;SDS011;19280;42.646;21.150;2023-04-25T08:23:01;34.15;;;16.73;;
32918;SDS011;19280;42.646;21.150;2023-04-25T08:25:27;9.35;;;4.00;;
32918;SDS011;19280;42.646;21.150;2023-04-25T08:27:53;24.33;;;11.73;;
32918;SDS011;19280;42.646;21.150;2023-04-25T08:30:19;18.73;;;6.57;;
32918;SDS011;19280;42.646;21.150;2023-04-25T08:32:46;8.00;;;3.40;;
32918;SDS011;19280;42.646;21.150;2023-04-25T08:35:12;12.45;;;3.53;;
32918;SDS011;19280;42.646;21.150;2023-04-25T08:37:38;12.57;;;4.15;;
32918;SDS011;19280;42.646;21.150;2023-04-25T08:40:04;19.27;;;6.55;;
32918;SDS011;19280;42.646;21.150;2023-04-25T08:42:32;11.45;;;3.63;;
32918;SDS011;19280;42.646;21.150;2023-04-25T08:45:02;9.52;;;3.25;;
32918;SDS011;19280;42.646;21.150;2023-04-25T08:47:28;14.95;;;3.83;;
32918;SDS011;19280;42.646;21.150;2023-04-25T08:49:55;5.97;;;2.38;;
32918;SDS011;19280;42.646;21.150;2023-04-25T08:52:22;8.40;;;3.30;;
32918;SDS011;19280;42.646;21.150;2023-04-25T08:54:51;5.47;;;1.92;;
32918;SDS011;19280;42.646;21.150;2023-04-25T08:57:18;5.57;;;1.88;;
32918;SDS011;19280;42.646;21.150;2023-04-25T08:59:45;16.35;;;3.85;;
32918;SDS011;19280;42.646;21.150;2023-04-25T09:02:12;14.18;;;3.13;;
32918;SDS011;19280;42.646;21.150;2023-04-25T09:04:42;8.05;;;2.83;;
32918;SDS011;19280;42.646;21.150;2023-04-25T09:07:08;11.75;;;4.03;;
32918;SDS011;19280;42.646;21.150;2023-04-25T09:09:35;15.98;;;4.63;;
32918;SDS011;19280;42.646;21.150;2023-04-25T09:12:01;18.23;;;4.93;;
32918;SDS011;19280;42.646;21.150;2023-04-25T09:14:27;25.45;;;5.80;;
32918;SDS011;19280;42.646;21.150;2023-04-25T09:21:50;24.48;;;5.25;;
32918;SDS011;19280;42.646;21.150;2023-04-25T09:24:16;25.42;;;4.30;;
32918;SDS011;19280;42.646;21.150;2023-04-25T09:26:45;22.58;;;4.38;;
32918;SDS011;19280;42.646;21.150;2023-04-25T09:29:11;33.53;;;6.93;;
32918;SDS011;19280;42.646;21.150;2023-04-25T09:31:37;28.67;;;6.05;;
32918;SDS011;19280;42.646;21.150;2023-04-25T09:34:03;34.75;;;6.68;;
32918;SDS011;19280;42.646;21.150;2023-04-25T09:36:29;31.02;;;5.03;;
32918;SDS011;19280;42.646;21.150;2023-04-25T09:38:56;22.95;;;5.13;;
32918;SDS011;19280;42.646;21.150;2023-04-25T09:41:23;21.30;;;5.07;;
32918;SDS011;19280;42.646;21.150;2023-04-25T09:43:49;30.52;;;6.70;;
32918;SDS011;19280;42.646;21.150;2023-04-25T09:46:16;31.67;;;6.65;;
32918;SDS011;19280;42.646;21.150;2023-04-25T09:48:50;23.92;;;6.07;;
32918;SDS011;19280;42.646;21.150;2023-04-25T09:51:18;27.50;;;5.40;;
32918;SDS011;19280;42.646;21.150;2023-04-25T09:53:45;24.67;;;4.78;;
32918;SDS011;19280;42.646;21.150;2023-04-25T09:56:12;16.13;;;4.22;;
32918;SDS011;19280;42.646;21.150;2023-04-25T09:58:39;17.33;;;3.50;;
32918;SDS011;19280;42.646;21.150;2023-04-25T10:01:09;13.93;;;2.78;;
32918;SDS011;19280;42.646;21.150;2023-04-25T10:03:39;15.70;;;3.28;;
32918;SDS011;19280;42.646;21.150;2023-04-25T10:06:12;16.63;;;3.50;;
32918;SDS011;19280;42.646;21.150;2023-04-25T10:08:39;10.90;;;2.95;;
32918;SDS011;19280;42.646;21.150;2023-04-25T10:11:07;6.82;;;2.28;;
32918;SDS011;19280;42.646;21.150;2023-04-25T10:13:34;15.73;;;3.25;;
32918;SDS011;19280;42.646;21.150;2023-04-25T10:16:02;20.35;;;4.15;;
32918;SDS011;19280;42.646;21.150;2023-04-25T10:18:28;17.20;;;4.72;;
32918;SDS011;19280;42.646;21.150;2023-04-25T10:20:59;5.30;;;2.05;;
32918;SDS011;19280;42.646;21.150;2023-04-25T10:23:25;7.70;;;2.65;;
32918;SDS011;19280;42.646;21.150;2023-04-25T10:25:53;4.53;;;1.88;;
32918;SDS011;19280;42.646;21.150;2023-04-25T10:28:19;5.90;;;2.15;;
32918;SDS011;19280;42.646;21.150;2023-04-25T10:31:01;8.38;;;1.95;;
32918;SDS011;19280;42.646;21.150;2023-04-25T10:33:38;7.03;;;2.35;;
32918;SDS011;19280;42.646;21.150;2023-04-25T10:36:23;9.32;;;2.15;;
32918;SDS011;19280;42.646;21.150;2023-04-25T10:38:52;6.10;;;1.70;;
32918;SDS011;19280;42.646;21.150;2023-04-25T10:41:19;9.63;;;2.47;;
32918;SDS011;19280;42.646;21.150;2023-04-25T10:43:46;10.65;;;2.22;;
32918;SDS011;19280;42.646;21.150;2023-04-25T10:48:46;9.65;;;2.38;;
32918;SDS011;19280;42.646;21.150;2023-04-25T10:51:23;8.85;;;2.40;;
32918;SDS011;19280;42.646;21.150;2023-04-25T10:56:21;8.98;;;2.80;;
32918;SDS011;19280;42.646;21.150;2023-04-25T10:58:48;9.70;;;2.25;;
32918;SDS011;19280;42.646;21.150;2023-04-25T11:01:15;13.52;;;3.33;;
32918;SDS011;19280;42.646;21.150;2023-04-25T11:03:41;13.23;;;2.78;;
32918;SDS011;19280;42.646;21.150;2023-04-25T11:06:12;13.57;;;4.88;;
32918;SDS011;19280;42.646;21.150;2023-04-25T11:08:50;10.45;;;2.85;;
32918;SDS011;19280;42.646;21.150;2023-04-25T11:11:17;12.57;;;3.63;;
32918;SDS011;19280;42.646;21.150;2023-04-25T11:13:43;12.27;;;4.55;;
32918;SDS011;19280;42.646;21.150;2023-04-25T11:16:10;4.28;;;1.88;;
32918;SDS011;19280;42.646;21.150;2023-04-25T11:18:36;4.53;;;1.88;;
32918;SDS011;19280;42.646;21.150;2023-04-25T11:21:03;6.90;;;2.40;;
32918;SDS011;19280;42.646;21.150;2023-04-25T11:23:30;5.25;;;2.10;;
32918;SDS011;19280;42.646;21.150;2023-04-25T11:25:56;5.78;;;1.40;;
32918;SDS011;19280;42.646;21.150;2023-04-25T11:28:22;3.45;;;1.52;;
32918;SDS011;19280;42.646;21.150;2023-04-25T11:30:49;10.40;;;1.80;;
32918;SDS011;19280;42.646;21.150;2023-04-25T11:33:15;5.75;;;1.50;;
32918;SDS011;19280;42.646;21.150;2023-04-25T11:35:41;5.00;;;1.83;;
32918;SDS011;19280;42.646;21.150;2023-04-25T11:38:08;4.10;;;1.30;;
32918;SDS011;19280;42.646;21.150;2023-04-25T11:40:35;3.25;;;1.65;;
32918;SDS011;19280;42.646;21.150;2023-04-25T11:43:01;5.53;;;1.90;;
32918;SDS011;19280;42.646;21.150;2023-04-25T11:45:27;6.53;;;2.22;;
32918;SDS011;19280;42.646;21.150;2023-04-25T11:47:55;9.43;;;4.75;;
32918;SDS011;19280;42.646;21.150;2023-04-25T11:50:21;6.72;;;2.13;;
32918;SDS011;19280;42.646;21.150;2023-04-25T11:52:48;8.20;;;2.80;;
32918;SDS011;19280;42.646;21.150;2023-04-25T11:55:14;6.70;;;2.70;;
32918;SDS011;19280;42.646;21.150;2023-04-25T11:57:41;5.90;;;2.85;;
32918;SDS011;19280;42.646;21.150;2023-04-25T12:02:37;25.15;;;10.32;;
32918;SDS011;19280;42.646;21.150;2023-04-25T12:05:06;13.80;;;5.68;;
32918;SDS011;19280;42.646;21.150;2023-04-25T12:07:33;7.55;;;2.80;;
32918;SDS011;19280;42.646;21.150;2023-04-25T12:10:03;9.45;;;2.80;;
32918;SDS011;19280;42.646;21.150;2023-04-25T12:12:33;7.53;;;2.90;;
32918;SDS011;19280;42.646;21.150;2023-04-25T12:15:18;8.25;;;2.22;;
32918;SDS011;19280;42.646;21.150;2023-04-25T12:17:45;5.28;;;1.85;;
32918;SDS011;19280;42.646;21.150;2023-04-25T12:20:15;6.22;;;1.55;;
32918;SDS011;19280;42.646;21.150;2023-04-25T12:22:42;6.65;;;1.65;;
32918;SDS011;19280;42.646;21.150;2023-04-25T12:25:10;3.47;;;1.70;;
32918;SDS011;19280;42.646;21.150;2023-04-25T12:27:36;19.23;;;2.88;;
32918;SDS011;19280;42.646;21.150;2023-04-25T12:30:02;5.30;;;2.00;;
32918;SDS011;19280;42.646;21.150;2023-04-25T12:32:29;4.45;;;2.20;;
32918;SDS011;19280;42.646;21.150;2023-04-25T12:34:56;5.88;;;2.25;;
32918;SDS011;19280;42.646;21.150;2023-04-25T12:37:22;7.13;;;3.60;;
32918;SDS011;19280;42.646;21.150;2023-04-25T12:39:48;6.30;;;3.22;;
32918;SDS011;19280;42.646;21.150;2023-04-25T12:42:14;6.82;;;3.22;;
32918;SDS011;19280;42.646;21.150;2023-04-25T12:44:40;9.50;;;3.50;;
32918;SDS011;19280;42.646;21.150;2023-04-25T12:47:06;12.18;;;3.28;;
32918;SDS011;19280;42.646;21.150;2023-04-25T12:49:32;11.43;;;3.55;;
32918;SDS011;19280;42.646;21.150;2023-04-25T12:51:58;9.93;;;3.65;;
32918;SDS011;19280;42.646;21.150;2023-04-25T12:54:25;11.50;;;4.00;;
32918;SDS011;19280;42.646;21.150;2023-04-25T12:56:51;9.57;;;3.17;;
32918;SDS011;19280;42.646;21.150;2023-04-25T12:59:17;9.80;;;2.90;;
32918;SDS011;19280;42.646;21.150;2023-04-25T13:01:45;6.35;;;2.90;;
32918;SDS011;19280;42.646;21.150;2023-04-25T13:04:11;6.72;;;3.47;;
32918;SDS011;19280;42.646;21.150;2023-04-25T13:06:37;14.95;;;5.78;;
32918;SDS011;19280;42.646;21.150;2023-04-25T13:09:03;15.18;;;5.20;;
32918;SDS011;19280;42.646;21.150;2023-04-25T13:11:29;11.57;;;4.88;;
32918;SDS011;19280;42.646;21.150;2023-04-25T13:13:56;8.77;;;4.80;;
32918;SDS011;19280;42.646;21.150;2023-04-25T13:16:22;11.75;;;3.85;;
32918;SDS011;19280;42.646;21.150;2023-04-25T13:18:48;10.02;;;5.43;;
32918;SDS011;19280;42.646;21.150;2023-04-25T13:21:14;9.88;;;5.13;;
32918;SDS011;19280;42.646;21.150;2023-04-25T13:23:41;11.05;;;6.03;;
32918;SDS011;19280;42.646;21.150;2023-04-25T13:26:11;10.35;;;6.07;;
32918;SDS011;19280;42.646;21.150;2023-04-25T13:28:37;10.73;;;5.07;;
32918;SDS011;19280;42.646;21.150;2023-04-25T13:31:05;11.07;;;5.78;;
32918;SDS011;19280;42.646;21.150;2023-04-25T13:33:31;12.77;;;5.50;;
32918;SDS011;19280;42.646;21.150;2023-04-25T13:35:57;7.32;;;4.63;;
32918;SDS011;19280;42.646;21.150;2023-04-25T13:38:24;7.95;;;4.03;;
32918;SDS011;19280;42.646;21.150;2023-04-25T13:40:50;6.70;;;3.83;;
32918;SDS011;19280;42.646;21.150;2023-04-25T13:43:18;8.50;;;4.55;;
32918;SDS011;19280;42.646;21.150;2023-04-25T13:45:44;10.77;;;5.30;;
32918;SDS011;19280;42.646;21.150;2023-04-25T13:48:10;10.13;;;5.40;;
32918;SDS011;19280;42.646;21.150;2023-04-25T13:50:36;12.15;;;5.88;;
32918;SDS011;19280;42.646;21.150;2023-04-25T13:53:03;11.77;;;6.10;;
32918;SDS011;19280;42.646;21.150;2023-04-25T13:55:29;8.90;;;5.28;;
32918;SDS011;19280;42.646;21.150;2023-04-25T13:57:55;8.07;;;5.15;;
32918;SDS011;19280;42.646;21.150;2023-04-25T14:00:21;7.95;;;4.90;;
32918;SDS011;19280;42.646;21.150;2023-04-25T14:02:47;9.55;;;4.30;;
32918;SDS011;19280;42.646;21.150;2023-04-25T14:05:14;10.07;;;5.55;;
32918;SDS011;19280;42.646;21.150;2023-04-25T14:07:40;10.20;;;4.80;;
32918;SDS011;19280;42.646;21.150;2023-04-25T14:10:06;12.45;;;4.82;;
32918;SDS011;19280;42.646;21.150;2023-04-25T14:12:32;9.32;;;5.15;;
32918;SDS011;19280;42.646;21.150;2023-04-25T14:14:59;10.70;;;5.28;;
32918;SDS011;19280;42.646;21.150;2023-04-25T14:17:25;12.20;;;6.35;;
32918;SDS011;19280;42.646;21.150;2023-04-25T14:19:51;19.25;;;5.78;;
32918;SDS011;19280;42.646;21.150;2023-04-25T14:22:17;7.85;;;4.05;;
32918;SDS011;19280;42.646;21.150;2023-04-25T14:24:44;13.55;;;4.47;;
32918;SDS011;19280;42.646;21.150;2023-04-25T14:27:10;12.82;;;4.20;;
32918;SDS011;19280;42.646;21.150;2023-04-25T14:29:36;5.63;;;3.17;;
32918;SDS011;19280;42.646;21.150;2023-04-25T14:32:02;7.05;;;3.80;;
32918;SDS011;19280;42.646;21.150;2023-04-25T14:34:30;5.35;;;2.78;;
32918;SDS011;19280;42.646;21.150;2023-04-25T14:36:56;6.45;;;3.33;;
32918;SDS011;19280;42.646;21.150;2023-04-25T14:39:22;6.53;;;3.35;;